Time;durP1;ratioP1;P1;durP2;ratioP2;P2;SDS_P1;SDS_P2;PMS_P1;PMS_P2;Temp;Humidity;BMP_temperature;BMP_pressure;BME280_temperature;BME280_humidity;BME280_pressure;Samples;Min_cycle;Max_cycle;Signal;HPM_P1;HPM_P2
2019/04/26 00:00:59;;;;;;;1.4;1.3;;;;;;;14.61;38.86426;94400.64;;;;
2019/04/26 00:02:11;;;;;;;3.4;1.55;;;;;;;14.54;39.58984;94401.1;;;;
2019/04/26 00:03:15;;;;;;;3.4;1.55;;;;;;;14.54;39.58984;94401.1;;;;
2019/04/26 00:04:17;;;;;;;3.4;1.55;;;;;;;14.54;39.58984;94401.1;;;;
2019/04/26 00:05:18;;;;;;;3.4;1.55;;;;;;;14.54;39.58984;94401.1;;;;
2019/04/26 00:06:19;;;;;;;3.4;1.55;;;;;;;14.54;39.58984;94401.1;;;;
2019/04/26 00:07:20;;;;;;;3.4;1.55;;;;;;;14.54;39.58984;94401.1;;;;
2019/04/26 00:08:22;;;;;;;3.4;1.55;;;;;;;14.54;39.58984;94401.1;;;;
2019/04/26 00:09:29;;;;;;;3.4;1.55;;;;;;;14.54;39.58984;94401.1;;;;
2019/04/26 00:10:38;;;;;;;3.4;1.55;;;;;;;14.54;39.58984;94401.1;;;;
2019/04/26 00:11:48;;;;;;;3.4;1.55;;;;;;;14.54;39.58984;94401.1;;;;
2019/04/26 00:13:01;;;;;;;1.95;1.4;;;;;;;14.35;39.60547;94392;;;;
2019/04/26 00:18:57;;;;;;;1.95;1.4;;;;;;;14.35;39.60547;94392;;;;
2019/04/26 00:19:58;;;;;;;1.95;1.4;;;;;;;14.35;39.60547;94392;;;;
2019/04/26 00:20:59;;;;;;;1.95;1.4;;;;;;;14.35;39.60547;94392;;;;
2019/04/26 00:22:00;;;;;;;1.95;1.4;;;;;;;14.35;39.60547;94392;;;;
2019/04/26 00:23:02;;;;;;;1.95;1.4;;;;;;;14.35;39.60547;94392;;;;
2019/04/26 00:24:03;;;;;;;2.9;1.65;;;;;;;14.06;40.00391;94398.64;;;;
2019/04/26 00:25:04;;;;;;;2.9;1.65;;;;;;;14.06;40.00391;94398.64;;;;
2019/04/26 00:26:05;;;;;;;2.9;1.65;;;;;;;14.06;40.00391;94398.64;;;;
2019/04/26 00:27:06;;;;;;;2.9;1.65;;;;;;;14.06;40.00391;94398.64;;;;
2019/04/26 00:28:07;;;;;;;2.9;1.65;;;;;;;14.06;40.00391;94398.64;;;;
2019/04/26 00:29:08;;;;;;;2.9;1.65;;;;;;;14.06;40.00391;94398.64;;;;
2019/04/26 00:30:09;;;;;;;2.9;1.65;;;;;;;14.06;40.00391;94398.64;;;;
2019/04/26 00:31:10;;;;;;;2.9;1.65;;;;;;;14.06;40.00391;94398.64;;;;
2019/04/26 00:32:11;;;;;;;2.9;1.65;;;;;;;14.06;40.00391;94398.64;;;;
2019/04/26 00:33:12;;;;;;;2.9;1.65;;;;;;;14.06;40.00391;94398.64;;;;
2019/04/26 00:34:13;;;;;;;3.15;1.7;;;;;;;13.74;40.47559;94383.84;;;;
2019/04/26 00:35:14;;;;;;;3.15;1.7;;;;;;;13.74;40.47559;94383.84;;;;
2019/04/26 00:36:15;;;;;;;3.15;1.7;;;;;;;13.74;40.47559;94383.84;;;;
2019/04/26 00:37:16;;;;;;;3.15;1.7;;;;;;;13.74;40.47559;94383.84;;;;
2019/04/26 00:38:17;;;;;;;3.15;1.7;;;;;;;13.74;40.47559;94383.84;;;;
2019/04/26 00:39:19;;;;;;;3.15;1.7;;;;;;;13.74;40.47559;94383.84;;;;
2019/04/26 00:40:20;;;;;;;3.15;1.7;;;;;;;13.74;40.47559;94383.84;;;;
2019/04/26 00:41:21;;;;;;;3.15;1.7;;;;;;;13.74;40.47559;94383.84;;;;
2019/04/26 00:42:22;;;;;;;3.15;1.7;;;;;;;13.74;40.47559;94383.84;;;;
2019/04/26 00:43:23;;;;;;;3.15;1.7;;;;;;;13.74;40.47559;94383.84;;;;
2019/04/26 00:44:24;;;;;;;1.8;1.5;;;;;;;13.41;41.01074;94385.71;;;;
2019/04/26 00:45:25;;;;;;;1.8;1.5;;;;;;;13.41;41.01074;94385.71;;;;
2019/04/26 00:46:28;;;;;;;1.8;1.5;;;;;;;13.41;41.01074;94385.71;;;;
2019/04/26 00:47:29;;;;;;;1.8;1.5;;;;;;;13.41;41.01074;94385.71;;;;
2019/04/26 00:48:30;;;;;;;1.8;1.5;;;;;;;13.41;41.01074;94385.71;;;;
2019/04/26 00:49:31;;;;;;;1.8;1.5;;;;;;;13.41;41.01074;94385.71;;;;
2019/04/26 00:50:33;;;;;;;1.8;1.5;;;;;;;13.41;41.01074;94385.71;;;;
2019/04/26 00:51:34;;;;;;;1.8;1.5;;;;;;;13.41;41.01074;94385.71;;;;
2019/04/26 00:52:35;;;;;;;1.8;1.5;;;;;;;13.41;41.01074;94385.71;;;;
2019/04/26 00:53:36;;;;;;;1.8;1.5;;;;;;;13.41;41.01074;94385.71;;;;
2019/04/26 00:54:37;;;;;;;1.8;1.5;;;;;;;13.41;41.01074;94385.71;;;;
2019/04/26 00:55:38;;;;;;;2.8;1.6;;;;;;;12.96;41.55566;94381.16;;;;
2019/04/26 00:56:39;;;;;;;2.8;1.6;;;;;;;12.96;41.55566;94381.16;;;;
2019/04/26 00:57:40;;;;;;;2.8;1.6;;;;;;;12.96;41.55566;94381.16;;;;
2019/04/26 00:58:41;;;;;;;2.8;1.6;;;;;;;12.96;41.55566;94381.16;;;;
2019/04/26 00:59:42;;;;;;;2.8;1.6;;;;;;;12.96;41.55566;94381.16;;;;
2019/04/26 01:00:43;;;;;;;2.8;1.6;;;;;;;12.96;41.55566;94381.16;;;;
2019/04/26 01:01:49;;;;;;;2.8;1.6;;;;;;;12.96;41.55566;94381.16;;;;
2019/04/26 01:02:53;;;;;;;2.8;1.6;;;;;;;12.96;41.55566;94381.16;;;;
2019/04/26 01:03:54;;;;;;;2.8;1.6;;;;;;;12.96;41.55566;94381.16;;;;
2019/04/26 01:04:55;;;;;;;2.8;1.6;;;;;;;12.96;41.55566;94381.16;;;;
2019/04/26 01:05:57;;;;;;;2.6;1.6;;;;;;;12.53;42.27441;94375.34;;;;
2019/04/26 01:06:59;;;;;;;2.6;1.6;;;;;;;12.53;42.27441;94375.34;;;;
2019/04/26 01:08:00;;;;;;;2.6;1.6;;;;;;;12.53;42.27441;94375.34;;;;
2019/04/26 01:09:01;;;;;;;2.6;1.6;;;;;;;12.53;42.27441;94375.34;;;;
2019/04/26 01:10:04;;;;;;;2.6;1.6;;;;;;;12.53;42.27441;94375.34;;;;
2019/04/26 01:11:05;;;;;;;2.6;1.6;;;;;;;12.53;42.27441;94375.34;;;;
2019/04/26 01:12:06;;;;;;;2.6;1.6;;;;;;;12.53;42.27441;94375.34;;;;
2019/04/26 01:13:07;;;;;;;2.6;1.6;;;;;;;12.53;42.27441;94375.34;;;;
2019/04/26 01:14:08;;;;;;;2.6;1.6;;;;;;;12.53;42.27441;94375.34;;;;
2019/04/26 01:15:10;;;;;;;2.6;1.6;;;;;;;12.53;42.27441;94375.34;;;;
2019/04/26 01:16:11;;;;;;;2.8;1.6;;;;;;;12.05;42.89941;94382.15;;;;
2019/04/26 01:17:12;;;;;;;2.8;1.6;;;;;;;12.05;42.89941;94382.15;;;;
2019/04/26 01:18:13;;;;;;;2.8;1.6;;;;;;;12.05;42.89941;94382.15;;;;
2019/04/26 01:19:14;;;;;;;2.8;1.6;;;;;;;12.05;42.89941;94382.15;;;;
2019/04/26 01:20:15;;;;;;;2.8;1.6;;;;;;;12.05;42.89941;94382.15;;;;
2019/04/26 01:21:16;;;;;;;2.8;1.6;;;;;;;12.05;42.89941;94382.15;;;;
2019/04/26 01:22:18;;;;;;;2.8;1.6;;;;;;;12.05;42.89941;94382.15;;;;
2019/04/26 01:23:24;;;;;;;2.8;1.6;;;;;;;12.05;42.89941;94382.15;;;;
2019/04/26 01:24:26;;;;;;;2.8;1.6;;;;;;;12.05;42.89941;94382.15;;;;
2019/04/26 01:25:28;;;;;;;2.8;1.6;;;;;;;12.05;42.89941;94382.15;;;;
2019/04/26 01:26:34;;;;;;;2.8;1.6;;;;;;;12.05;42.89941;94382.15;;;;
2019/04/26 01:27:35;;;;;;;1.95;1.55;;;;;;;11.74;43.5293;94366.5;;;;
2019/04/26 01:28:36;;;;;;;1.95;1.55;;;;;;;11.74;43.5293;94366.5;;;;
2019/04/26 01:29:42;;;;;;;1.95;1.55;;;;;;;11.74;43.5293;94366.5;;;;
2019/04/26 01:30:44;;;;;;;1.95;1.55;;;;;;;11.74;43.5293;94366.5;;;;
2019/04/26 01:31:45;;;;;;;1.95;1.55;;;;;;;11.74;43.5293;94366.5;;;;
2019/04/26 01:32:54;;;;;;;1.95;1.55;;;;;;;11.74;43.5293;94366.5;;;;
2019/04/26 01:33:55;;;;;;;1.95;1.55;;;;;;;11.74;43.5293;94366.5;;;;
2019/04/26 01:34:57;;;;;;;1.95;1.55;;;;;;;11.74;43.5293;94366.5;;;;
2019/04/26 01:35:58;;;;;;;1.95;1.55;;;;;;;11.74;43.5293;94366.5;;;;
2019/04/26 01:36:59;;;;;;;1.95;1.55;;;;;;;11.74;43.5293;94366.5;;;;
2019/04/26 01:38:00;;;;;;;2.45;1.55;;;;;;;11.41;44.12402;94379.83;;;;
2019/04/26 01:39:02;;;;;;;2.45;1.55;;;;;;;11.41;44.12402;94379.83;;;;
2019/04/26 01:40:07;;;;;;;2.45;1.55;;;;;;;11.41;44.12402;94379.83;;;;
2019/04/26 01:41:14;;;;;;;2.45;1.55;;;;;;;11.41;44.12402;94379.83;;;;
2019/04/26 01:42:34;;;;;;;2.45;1.55;;;;;;;11.41;44.12402;94379.83;;;;
2019/04/26 01:43:44;;;;;;;2.45;1.55;;;;;;;11.41;44.12402;94379.83;;;;
2019/04/26 01:44:51;;;;;;;2.45;1.55;;;;;;;11.41;44.12402;94379.83;;;;
2019/04/26 01:46:04;;;;;;;2.45;1.55;;;;;;;11.41;44.12402;94379.83;;;;
2019/04/26 01:47:06;;;;;;;2.45;1.55;;;;;;;11.41;44.12402;94379.83;;;;
2019/04/26 01:48:41;;;;;;;2.4;1.85;;;;;;;11.28;44.84668;94372.61;;;;
2019/04/26 01:49:51;;;;;;;2.4;1.85;;;;;;;11.28;44.84668;94372.61;;;;
2019/04/26 01:50:52;;;;;;;2.4;1.85;;;;;;;11.28;44.84668;94372.61;;;;
2019/04/26 01:51:53;;;;;;;2.4;1.85;;;;;;;11.28;44.84668;94372.61;;;;
2019/04/26 01:53:00;;;;;;;2.4;1.85;;;;;;;11.28;44.84668;94372.61;;;;
2019/04/26 01:54:01;;;;;;;2.4;1.85;;;;;;;11.28;44.84668;94372.61;;;;
2019/04/26 01:55:03;;;;;;;2.4;1.85;;;;;;;11.28;44.84668;94372.61;;;;
2019/04/26 01:56:04;;;;;;;2.4;1.85;;;;;;;11.28;44.84668;94372.61;;;;
2019/04/26 01:57:05;;;;;;;2.4;1.85;;;;;;;11.28;44.84668;94372.61;;;;
2019/04/26 01:58:06;;;;;;;2.4;1.85;;;;;;;11.28;44.84668;94372.61;;;;
2019/04/26 01:59:08;;;;;;;3.85;1.9;;;;;;;11.24;45.23145;94375.95;;;;
2019/04/26 02:00:24;;;;;;;3.85;1.9;;;;;;;11.24;45.23145;94375.95;;;;
2019/04/26 02:01:49;;;;;;;3.85;1.9;;;;;;;11.24;45.23145;94375.95;;;;
2019/04/26 02:02:55;;;;;;;3.85;1.9;;;;;;;11.24;45.23145;94375.95;;;;
2019/04/26 02:03:56;;;;;;;3.85;1.9;;;;;;;11.24;45.23145;94375.95;;;;
2019/04/26 02:04:59;;;;;;;3.85;1.9;;;;;;;11.24;45.23145;94375.95;;;;
2019/04/26 02:06:01;;;;;;;3.85;1.9;;;;;;;11.24;45.23145;94375.95;;;;
2019/04/26 02:07:02;;;;;;;3.85;1.9;;;;;;;11.24;45.23145;94375.95;;;;
2019/04/26 02:08:03;;;;;;;3.85;1.9;;;;;;;11.24;45.23145;94375.95;;;;
2019/04/26 02:09:07;;;;;;;2.8;1.8;;;;;;;11.24;45.43652;94383.28;;;;
2019/04/26 02:10:08;;;;;;;2.8;1.8;;;;;;;11.24;45.43652;94383.28;;;;
2019/04/26 02:11:11;;;;;;;2.8;1.8;;;;;;;11.24;45.43652;94383.28;;;;
2019/04/26 02:12:13;;;;;;;2.8;1.8;;;;;;;11.24;45.43652;94383.28;;;;
2019/04/26 02:13:14;;;;;;;2.8;1.8;;;;;;;11.24;45.43652;94383.28;;;;
2019/04/26 02:14:15;;;;;;;2.8;1.8;;;;;;;11.24;45.43652;94383.28;;;;
2019/04/26 02:15:16;;;;;;;2.8;1.8;;;;;;;11.24;45.43652;94383.28;;;;
2019/04/26 02:16:19;;;;;;;2.8;1.8;;;;;;;11.24;45.43652;94383.28;;;;
2019/04/26 02:17:20;;;;;;;2.8;1.8;;;;;;;11.24;45.43652;94383.28;;;;
2019/04/26 02:18:21;;;;;;;2.8;1.8;;;;;;;11.24;45.43652;94383.28;;;;
2019/04/26 02:19:23;;;;;;;2.8;1.8;;;;;;;11.24;45.43652;94383.28;;;;
2019/04/26 02:20:24;;;;;;;3.7;1.9;;;;;;;11.03;45.80371;94375.98;;;;
2019/04/26 02:22:14;;;;;;;3.7;1.9;;;;;;;11.03;45.80371;94375.98;;;;
2019/04/26 02:23:23;;;;;;;3.7;1.9;;;;;;;11.03;45.80371;94375.98;;;;
2019/04/26 02:24:29;;;;;;;3.7;1.9;;;;;;;11.03;45.80371;94375.98;;;;
2019/04/26 02:25:30;;;;;;;3.7;1.9;;;;;;;11.03;45.80371;94375.98;;;;
2019/04/26 02:26:32;;;;;;;3.7;1.9;;;;;;;11.03;45.80371;94375.98;;;;
2019/04/26 02:27:33;;;;;;;3.7;1.9;;;;;;;11.03;45.80371;94375.98;;;;
2019/04/26 02:28:34;;;;;;;3.7;1.9;;;;;;;11.03;45.80371;94375.98;;;;
2019/04/26 02:29:36;;;;;;;3.7;1.9;;;;;;;11.03;45.80371;94375.98;;;;
2019/04/26 02:30:37;;;;;;;2.35;1.9;;;;;;;10.86;46.31445;94382.62;;;;
2019/04/26 02:31:38;;;;;;;2.35;1.9;;;;;;;10.86;46.31445;94382.62;;;;
2019/04/26 02:32:40;;;;;;;2.35;1.9;;;;;;;10.86;46.31445;94382.62;;;;
2019/04/26 02:33:41;;;;;;;2.35;1.9;;;;;;;10.86;46.31445;94382.62;;;;
2019/04/26 02:34:42;;;;;;;2.35;1.9;;;;;;;10.86;46.31445;94382.62;;;;
2019/04/26 02:35:43;;;;;;;2.35;1.9;;;;;;;10.86;46.31445;94382.62;;;;
2019/04/26 02:36:44;;;;;;;2.35;1.9;;;;;;;10.86;46.31445;94382.62;;;;
2019/04/26 02:37:45;;;;;;;2.35;1.9;;;;;;;10.86;46.31445;94382.62;;;;
2019/04/26 02:38:46;;;;;;;2.35;1.9;;;;;;;10.86;46.31445;94382.62;;;;
2019/04/26 02:39:48;;;;;;;2.35;1.9;;;;;;;10.86;46.31445;94382.62;;;;
2019/04/26 02:40:49;;;;;;;2.7;1.9;;;;;;;10.62;46.9043;94378.65;;;;
2019/04/26 02:41:50;;;;;;;2.7;1.9;;;;;;;10.62;46.9043;94378.65;;;;
2019/04/26 02:42:55;;;;;;;2.7;1.9;;;;;;;10.62;46.9043;94378.65;;;;
2019/04/26 02:43:56;;;;;;;2.7;1.9;;;;;;;10.62;46.9043;94378.65;;;;
2019/04/26 02:45:44;;;;;;;2.7;1.9;;;;;;;10.62;46.9043;94378.65;;;;
2019/04/26 02:46:54;;;;;;;2.7;1.9;;;;;;;10.62;46.9043;94378.65;;;;
2019/04/26 02:49:19;;;;;;;2.7;1.9;;;;;;;10.62;46.9043;94378.65;;;;
2019/04/26 02:50:26;;;;;;;2.7;1.9;;;;;;;10.62;46.9043;94378.65;;;;
2019/04/26 02:51:27;;;;;;;2.7;1.9;;;;;;;10.62;46.9043;94378.65;;;;
2019/04/26 02:52:32;;;;;;;4.85;2.3;;;;;;;10.44;47.56445;94367.72;;;;
2019/04/26 02:53:41;;;;;;;4.85;2.3;;;;;;;10.44;47.56445;94367.72;;;;
2019/04/26 02:54:47;;;;;;;4.85;2.3;;;;;;;10.44;47.56445;94367.72;;;;
2019/04/26 02:55:55;;;;;;;4.85;2.3;;;;;;;10.44;47.56445;94367.72;;;;
2019/04/26 02:57:06;;;;;;;4.85;2.3;;;;;;;10.44;47.56445;94367.72;;;;
2019/04/26 02:58:07;;;;;;;4.85;2.3;;;;;;;10.44;47.56445;94367.72;;;;
2019/04/26 02:59:08;;;;;;;4.85;2.3;;;;;;;10.44;47.56445;94367.72;;;;
2019/04/26 03:00:37;;;;;;;4.85;2.3;;;;;;;10.44;47.56445;94367.72;;;;
2019/04/26 03:01:38;;;;;;;4.85;2.3;;;;;;;10.44;47.56445;94367.72;;;;
2019/04/26 03:02:39;;;;;;;4.4;2.15;;;;;;;10.25;49.00879;94379.97;;;;
2019/04/26 03:03:41;;;;;;;4.4;2.15;;;;;;;10.25;49.00879;94379.97;;;;
2019/04/26 03:04:42;;;;;;;4.4;2.15;;;;;;;10.25;49.00879;94379.97;;;;
2019/04/26 03:05:43;;;;;;;4.4;2.15;;;;;;;10.25;49.00879;94379.97;;;;
2019/04/26 03:06:44;;;;;;;4.4;2.15;;;;;;;10.25;49.00879;94379.97;;;;
2019/04/26 03:07:45;;;;;;;4.4;2.15;;;;;;;10.25;49.00879;94379.97;;;;
2019/04/26 03:09:05;;;;;;;4.4;2.15;;;;;;;10.25;49.00879;94379.97;;;;
2019/04/26 03:10:07;;;;;;;4.4;2.15;;;;;;;10.25;49.00879;94379.97;;;;
2019/04/26 03:11:08;;;;;;;4.4;2.15;;;;;;;10.25;49.00879;94379.97;;;;
2019/04/26 03:12:14;;;;;;;4.4;2.15;;;;;;;10.25;49.00879;94379.97;;;;
2019/04/26 03:13:39;;;;;;;5;2.4;;;;;;;10.09;49.54004;94369.14;;;;
2019/04/26 03:14:49;;;;;;;5;2.4;;;;;;;10.09;49.54004;94369.14;;;;
2019/04/26 03:16:05;;;;;;;5;2.4;;;;;;;10.09;49.54004;94369.14;;;;
2019/04/26 03:17:23;;;;;;;5;2.4;;;;;;;10.09;49.54004;94369.14;;;;
2019/04/26 03:18:35;;;;;;;5;2.4;;;;;;;10.09;49.54004;94369.14;;;;
2019/04/26 03:19:45;;;;;;;5;2.4;;;;;;;10.09;49.54004;94369.14;;;;
2019/04/26 03:20:50;;;;;;;5;2.4;;;;;;;10.09;49.54004;94369.14;;;;
2019/04/26 03:21:56;;;;;;;5;2.4;;;;;;;10.09;49.54004;94369.14;;;;
2019/04/26 03:23:05;;;;;;;5;2.4;;;;;;;10.09;49.54004;94369.14;;;;
2019/04/26 03:24:43;;;;;;;4.05;2.25;;;;;;;9.88;50.17285;94392.89;;;;
2019/04/26 03:26:09;;;;;;;4.05;2.25;;;;;;;9.88;50.17285;94392.89;;;;
2019/04/26 03:27:33;;;;;;;4.05;2.25;;;;;;;9.88;50.17285;94392.89;;;;
2019/04/26 03:37:01;;;;;;;2.95;2.4;;;;;;;9.81;51.34766;94407.64;;;;
2019/04/26 03:38:36;;;;;;;2.95;2.4;;;;;;;9.81;51.34766;94407.64;;;;
2019/04/26 03:39:51;;;;;;;2.95;2.4;;;;;;;9.81;51.34766;94407.64;;;;
2019/04/26 03:41:04;;;;;;;2.95;2.4;;;;;;;9.81;51.34766;94407.64;;;;
2019/04/26 03:42:14;;;;;;;2.95;2.4;;;;;;;9.81;51.34766;94407.64;;;;
2019/04/26 03:44:13;;;;;;;2.95;2.4;;;;;;;9.81;51.34766;94407.64;;;;
2019/04/26 03:45:20;;;;;;;3.5;2.5;;;;;;;9.75;53.06055;94431.02;;;;
2019/04/26 03:46:34;;;;;;;3.5;2.5;;;;;;;9.75;53.06055;94431.02;;;;
2019/04/26 03:47:38;;;;;;;3.5;2.5;;;;;;;9.75;53.06055;94431.02;;;;
2019/04/26 03:48:48;;;;;;;3.5;2.5;;;;;;;9.75;53.06055;94431.02;;;;
2019/04/26 03:49:59;;;;;;;3.5;2.5;;;;;;;9.75;53.06055;94431.02;;;;
2019/04/26 03:51:13;;;;;;;3.5;2.5;;;;;;;9.75;53.06055;94431.02;;;;
2019/04/26 03:52:28;;;;;;;3.5;2.5;;;;;;;9.75;53.06055;94431.02;;;;
2019/04/26 03:54:46;;;;;;;3.5;2.5;;;;;;;9.75;53.06055;94431.02;;;;
2019/04/26 03:55:49;;;;;;;3.5;2.5;;;;;;;9.75;53.06055;94431.02;;;;
2019/04/26 03:59:55;;;;;;;4.25;2.6;;;;;;;9.67;53.54492;94434.69;;;;
2019/04/26 04:01:12;;;;;;;4.25;2.6;;;;;;;9.67;53.54492;94434.69;;;;
2019/04/26 04:02:21;;;;;;;4.25;2.6;;;;;;;9.67;53.54492;94434.69;;;;
2019/04/26 04:03:50;;;;;;;4.25;2.6;;;;;;;9.67;53.54492;94434.69;;;;
2019/04/26 04:04:56;;;;;;;4.25;2.6;;;;;;;9.67;53.54492;94434.69;;;;
2019/04/26 04:06:06;;;;;;;4.25;2.6;;;;;;;9.67;53.54492;94434.69;;;;
2019/04/26 04:07:08;;;;;;;4.7;2.5;;;;;;;9.56;54.85156;94465.68;;;;
2019/04/26 04:08:10;;;;;;;4.7;2.5;;;;;;;9.56;54.85156;94465.68;;;;
2019/04/26 04:09:16;;;;;;;4.7;2.5;;;;;;;9.56;54.85156;94465.68;;;;
2019/04/26 04:10:17;;;;;;;4.7;2.5;;;;;;;9.56;54.85156;94465.68;;;;
2019/04/26 04:11:22;;;;;;;4.7;2.5;;;;;;;9.56;54.85156;94465.68;;;;
2019/04/26 04:12:30;;;;;;;4.7;2.5;;;;;;;9.56;54.85156;94465.68;;;;
2019/04/26 04:13:43;;;;;;;4.7;2.5;;;;;;;9.56;54.85156;94465.68;;;;
2019/04/26 04:14:51;;;;;;;4.7;2.5;;;;;;;9.56;54.85156;94465.68;;;;
2019/04/26 04:16:00;;;;;;;4.7;2.5;;;;;;;9.56;54.85156;94465.68;;;;
2019/04/26 04:17:10;;;;;;;4.7;2.5;;;;;;;9.56;54.85156;94465.68;;;;
2019/04/26 04:18:17;;;;;;;5.15;2.95;;;;;;;9.46;55.64453;94466.35;;;;
2019/04/26 04:19:23;;;;;;;5.15;2.95;;;;;;;9.46;55.64453;94466.35;;;;
2019/04/26 04:24:39;;;;;;;5.15;2.95;;;;;;;9.46;55.64453;94466.35;;;;
2019/04/26 04:25:45;;;;;;;5.15;2.95;;;;;;;9.46;55.64453;94466.35;;;;
2019/04/26 04:26:47;;;;;;;5.15;2.95;;;;;;;9.46;55.64453;94466.35;;;;
2019/04/26 04:30:45;;;;;;;3.95;2.4;;;;;;;9.31;56.21582;94465.75;;;;
2019/04/26 04:32:08;;;;;;;3.95;2.4;;;;;;;9.31;56.21582;94465.75;;;;
2019/04/26 04:33:24;;;;;;;3.95;2.4;;;;;;;9.31;56.21582;94465.75;;;;
2019/04/26 04:34:46;;;;;;;3.95;2.4;;;;;;;9.31;56.21582;94465.75;;;;
2019/04/26 04:35:51;;;;;;;3.95;2.4;;;;;;;9.31;56.21582;94465.75;;;;
2019/04/26 04:36:54;;;;;;;3.95;2.4;;;;;;;9.31;56.21582;94465.75;;;;
2019/04/26 04:37:58;;;;;;;3.95;2.4;;;;;;;9.31;56.21582;94465.75;;;;
2019/04/26 04:39:06;;;;;;;5.849999;3.05;;;;;;;9.25;56.49902;94501.22;;;;
2019/04/26 04:40:14;;;;;;;5.849999;3.05;;;;;;;9.25;56.49902;94501.22;;;;
2019/04/26 04:41:35;;;;;;;5.849999;3.05;;;;;;;9.25;56.49902;94501.22;;;;
2019/04/26 04:42:52;;;;;;;5.849999;3.05;;;;;;;9.25;56.49902;94501.22;;;;
2019/04/26 04:44:06;;;;;;;5.849999;3.05;;;;;;;9.25;56.49902;94501.22;;;;
2019/04/26 04:45:24;;;;;;;5.849999;3.05;;;;;;;9.25;56.49902;94501.22;;;;
2019/04/26 04:47:14;;;;;;;5.849999;3.05;;;;;;;9.25;56.49902;94501.22;;;;
2019/04/26 04:48:27;;;;;;;5.849999;3.05;;;;;;;9.25;56.49902;94501.22;;;;
2019/04/26 04:49:40;;;;;;;6.35;3.05;;;;;;;9.24;57.42871;94512.24;;;;
2019/04/26 04:50:53;;;;;;;6.35;3.05;;;;;;;9.24;57.42871;94512.24;;;;
2019/04/26 04:52:06;;;;;;;6.35;3.05;;;;;;;9.24;57.42871;94512.24;;;;
2019/04/26 04:53:22;;;;;;;6.35;3.05;;;;;;;9.24;57.42871;94512.24;;;;
2019/04/26 04:54:41;;;;;;;6.35;3.05;;;;;;;9.24;57.42871;94512.24;;;;
2019/04/26 04:55:44;;;;;;;6.35;3.05;;;;;;;9.24;57.42871;94512.24;;;;
2019/04/26 04:56:56;;;;;;;6.35;3.05;;;;;;;9.24;57.42871;94512.24;;;;
2019/04/26 04:58:05;;;;;;;6.35;3.05;;;;;;;9.24;57.42871;94512.24;;;;
2019/04/26 04:59:09;;;;;;;6.35;3.05;;;;;;;9.24;57.42871;94512.24;;;;
2019/04/26 05:00:25;;;;;;;3.2;2.45;;;;;;;9.3;57.85547;94542.25;;;;
2019/04/26 05:06:21;;;;;;;3.2;2.45;;;;;;;9.3;57.85547;94542.25;;;;
2019/04/26 05:07:52;;;;;;;3.2;2.45;;;;;;;9.3;57.85547;94542.25;;;;
2019/04/26 05:09:04;;;;;;;3.2;2.45;;;;;;;9.3;57.85547;94542.25;;;;
2019/04/26 05:10:08;;;;;;;3.2;2.45;;;;;;;9.3;57.85547;94542.25;;;;
2019/04/26 05:11:14;;;;;;;4.699999;2.65;;;;;;;9.37;58.44434;94569.83;;;;
2019/04/26 05:12:19;;;;;;;4.699999;2.65;;;;;;;9.37;58.44434;94569.83;;;;
2019/04/26 05:13:27;;;;;;;4.699999;2.65;;;;;;;9.37;58.44434;94569.83;;;;
2019/04/26 05:14:31;;;;;;;4.699999;2.65;;;;;;;9.37;58.44434;94569.83;;;;
2019/04/26 05:15:56;;;;;;;4.699999;2.65;;;;;;;9.37;58.44434;94569.83;;;;
2019/04/26 05:21:10;;;;;;;4.699999;2.65;;;;;;;9.37;58.44434;94569.83;;;;
2019/04/26 05:22:23;;;;;;;4.15;2.7;;;;;;;9.52;59.15039;94594.71;;;;
2019/04/26 05:23:46;;;;;;;4.15;2.7;;;;;;;9.52;59.15039;94594.71;;;;
2019/04/26 05:25:02;;;;;;;4.15;2.7;;;;;;;9.52;59.15039;94594.71;;;;
2019/04/26 05:31:23;;;;;;;4.15;2.7;;;;;;;9.52;59.15039;94594.71;;;;
2019/04/26 05:32:28;;;;;;;3.250001;2.55;;;;;;;9.64;59.43555;94619.69;;;;
2019/04/26 05:38:30;;;;;;;3.250001;2.55;;;;;;;9.64;59.43555;94619.69;;;;
2019/04/26 05:40:00;;;;;;;3.250001;2.55;;;;;;;9.64;59.43555;94619.69;;;;
2019/04/26 05:45:36;;;;;;;3.5;2.299999;;;;;;;9.85;59.1416;94609.52;;;;
2019/04/26 05:46:52;;;;;;;3.5;2.299999;;;;;;;9.85;59.1416;94609.52;;;;
2019/04/26 05:48:06;;;;;;;3.5;2.299999;;;;;;;9.85;59.1416;94609.52;;;;
2019/04/26 05:49:38;;;;;;;3.5;2.299999;;;;;;;9.85;59.1416;94609.52;;;;
2019/04/26 05:51:16;;;;;;;3.5;2.299999;;;;;;;9.85;59.1416;94609.52;;;;
2019/04/26 05:54:39;;;;;;;3.5;2.299999;;;;;;;9.85;59.1416;94609.52;;;;
2019/04/26 05:56:05;;;;;;;10.55;3.1;;;;;;;10.13;59.23145;94623.95;;;;
2019/04/26 05:57:17;;;;;;;10.55;3.1;;;;;;;10.13;59.23145;94623.95;;;;
2019/04/26 05:58:31;;;;;;;10.55;3.1;;;;;;;10.13;59.23145;94623.95;;;;
2019/04/26 05:59:41;;;;;;;10.55;3.1;;;;;;;10.13;59.23145;94623.95;;;;
2019/04/26 06:01:12;;;;;;;10.55;3.1;;;;;;;10.13;59.23145;94623.95;;;;
2019/04/26 06:03:35;;;;;;;10.55;3.1;;;;;;;10.13;59.23145;94623.95;;;;
2019/04/26 06:08:32;;;;;;;4.3;2.55;;;;;;;10.54;59.16016;94641.37;;;;
2019/04/26 06:10:07;;;;;;;4.3;2.55;;;;;;;10.54;59.16016;94641.37;;;;
2019/04/26 06:11:15;;;;;;;4.3;2.55;;;;;;;10.54;59.16016;94641.37;;;;
2019/04/26 06:12:23;;;;;;;4.3;2.55;;;;;;;10.54;59.16016;94641.37;;;;
2019/04/26 06:14:06;;;;;;;4.3;2.55;;;;;;;10.54;59.16016;94641.37;;;;
2019/04/26 06:15:35;;;;;;;4.3;2.55;;;;;;;10.54;59.16016;94641.37;;;;
2019/04/26 06:16:53;;;;;;;25.25;4.650001;;;;;;;10.88;58.98047;94652.31;;;;
2019/04/26 06:18:09;;;;;;;25.25;4.650001;;;;;;;10.88;58.98047;94652.31;;;;
2019/04/26 06:19:19;;;;;;;25.25;4.650001;;;;;;;10.88;58.98047;94652.31;;;;
2019/04/26 06:20:27;;;;;;;25.25;4.650001;;;;;;;10.88;58.98047;94652.31;;;;
2019/04/26 06:21:34;;;;;;;25.25;4.650001;;;;;;;10.88;58.98047;94652.31;;;;
2019/04/26 06:22:48;;;;;;;25.25;4.650001;;;;;;;10.88;58.98047;94652.31;;;;
2019/04/26 06:24:02;;;;;;;25.25;4.650001;;;;;;;10.88;58.98047;94652.31;;;;
2019/04/26 06:25:27;;;;;;;25.25;4.650001;;;;;;;10.88;58.98047;94652.31;;;;
2019/04/26 06:26:41;;;;;;;25.25;4.650001;;;;;;;10.88;58.98047;94652.31;;;;
2019/04/26 06:27:52;;;;;;;6.599999;2.7;;;;;;;11.4;58.46777;94662.03;;;;
2019/04/26 06:29:33;;;;;;;6.599999;2.7;;;;;;;11.4;58.46777;94662.03;;;;
2019/04/26 06:30:42;;;;;;;6.599999;2.7;;;;;;;11.4;58.46777;94662.03;;;;
2019/04/26 06:31:46;;;;;;;6.599999;2.7;;;;;;;11.4;58.46777;94662.03;;;;
2019/04/26 06:32:56;;;;;;;6.599999;2.7;;;;;;;11.4;58.46777;94662.03;;;;
2019/04/26 06:34:13;;;;;;;6.599999;2.7;;;;;;;11.4;58.46777;94662.03;;;;
2019/04/26 06:35:19;;;;;;;6.599999;2.7;;;;;;;11.4;58.46777;94662.03;;;;
2019/04/26 06:36:26;;;;;;;6.599999;2.7;;;;;;;11.4;58.46777;94662.03;;;;
2019/04/26 06:37:37;;;;;;;5.149999;2.4;;;;;;;12.3;57.31445;94672.78;;;;
2019/04/26 06:38:49;;;;;;;5.149999;2.4;;;;;;;12.3;57.31445;94672.78;;;;
2019/04/26 06:40:13;;;;;;;5.149999;2.4;;;;;;;12.3;57.31445;94672.78;;;;
2019/04/26 06:41:21;;;;;;;5.149999;2.4;;;;;;;12.3;57.31445;94672.78;;;;
2019/04/26 06:42:37;;;;;;;5.149999;2.4;;;;;;;12.3;57.31445;94672.78;;;;
2019/04/26 06:44:01;;;;;;;5.149999;2.4;;;;;;;12.3;57.31445;94672.78;;;;
2019/04/26 06:45:15;;;;;;;5.149999;2.4;;;;;;;12.3;57.31445;94672.78;;;;
2019/04/26 06:47:19;;;;;;;5.149999;2.4;;;;;;;12.3;57.31445;94672.78;;;;
2019/04/26 06:48:33;;;;;;;6.350001;2.75;;;;;;;13.35;55.67773;94673.27;;;;
2019/04/26 06:49:52;;;;;;;6.350001;2.75;;;;;;;13.35;55.67773;94673.27;;;;
2019/04/26 06:51:12;;;;;;;6.350001;2.75;;;;;;;13.35;55.67773;94673.27;;;;
2019/04/26 06:52:18;;;;;;;6.350001;2.75;;;;;;;13.35;55.67773;94673.27;;;;
2019/04/26 06:53:20;;;;;;;6.350001;2.75;;;;;;;13.35;55.67773;94673.27;;;;
2019/04/26 06:54:34;;;;;;;6.350001;2.75;;;;;;;13.35;55.67773;94673.27;;;;
2019/04/26 06:55:52;;;;;;;6.350001;2.75;;;;;;;13.35;55.67773;94673.27;;;;
2019/04/26 06:57:03;;;;;;;6.350001;2.75;;;;;;;13.35;55.67773;94673.27;;;;
2019/04/26 06:58:19;;;;;;;6.350001;2.75;;;;;;;13.35;55.67773;94673.27;;;;
2019/04/26 07:03:34;;;;;;;8.1;2.9;;;;;;;14;54.5332;94700.2;;;;
2019/04/26 07:05:37;;;;;;;8.1;2.9;;;;;;;14;54.5332;94700.2;;;;
2019/04/26 07:06:38;;;;;;;8.1;2.9;;;;;;;14;54.5332;94700.2;;;;
2019/04/26 07:11:58;;;;;;;3.85;2.3;;;;;;;15.21;52.88867;94700.83;;;;
2019/04/26 07:13:44;;;;;;;3.85;2.3;;;;;;;15.21;52.88867;94700.83;;;;
2019/04/26 07:15:06;;;;;;;3.85;2.3;;;;;;;15.21;52.88867;94700.83;;;;
2019/04/26 07:17:02;;;;;;;3.85;2.3;;;;;;;15.21;52.88867;94700.83;;;;
2019/04/26 07:18:06;;;;;;;3.85;2.3;;;;;;;15.21;52.88867;94700.83;;;;
2019/04/26 07:19:23;;;;;;;3.85;2.3;;;;;;;15.21;52.88867;94700.83;;;;
2019/04/26 07:21:04;;;;;;;5.950001;2.55;;;;;;;16.68;50.86914;94703.64;;;;
2019/04/26 07:23:17;;;;;;;5.950001;2.55;;;;;;;16.68;50.86914;94703.64;;;;
2019/04/26 07:25:26;;;;;;;5.950001;2.55;;;;;;;16.68;50.86914;94703.64;;;;
2019/04/26 07:30:47;;;;;;;5.950001;2.55;;;;;;;16.68;50.86914;94703.64;;;;
2019/04/26 07:31:53;;;;;;;7.9;2.6;;;;;;;17.39;49.52832;94715.95;;;;
2019/04/26 07:33:01;;;;;;;7.9;2.6;;;;;;;17.39;49.52832;94715.95;;;;
2019/04/26 07:34:28;;;;;;;7.9;2.6;;;;;;;17.39;49.52832;94715.95;;;;
2019/04/26 07:40:31;;;;;;;7.9;2.6;;;;;;;17.39;49.52832;94715.95;;;;
2019/04/26 07:41:49;;;;;;;7.9;2.6;;;;;;;17.39;49.52832;94715.95;;;;
2019/04/26 07:45:24;;;;;;;3.25;2.3;;;;;;;16.94;49.77344;94719.08;;;;
2019/04/26 07:46:42;;;;;;;3.25;2.3;;;;;;;16.94;49.77344;94719.08;;;;
2019/04/26 07:48:17;;;;;;;3.25;2.3;;;;;;;16.94;49.77344;94719.08;;;;
2019/04/26 07:49:25;;;;;;;3.25;2.3;;;;;;;16.94;49.77344;94719.08;;;;
2019/04/26 07:51:14;;;;;;;3.25;2.3;;;;;;;16.94;49.77344;94719.08;;;;
2019/04/26 07:52:52;;;;;;;3.25;2.3;;;;;;;16.94;49.77344;94719.08;;;;
2019/04/26 07:54:06;;;;;;;6.95;2.65;;;;;;;17.02;49.31152;94745.7;;;;
2019/04/26 08:03:30;;;;;;;6.95;2.65;;;;;;;17.02;49.31152;94745.7;;;;
2019/04/26 08:04:42;;;;;;;12.75;3.5;;;;;;;17.04;48.96387;94759.45;;;;